createdAt,value
2018-11-06T00:01:19.769Z,99.90
2018-11-06T00:04:04.555Z,99.90
2018-11-06T00:06:46.400Z,99.90
2018-11-06T00:09:27.541Z,99.90
2018-11-06T00:12:09.120Z,99.90
2018-11-06T00:14:50.992Z,99.90
2018-11-06T00:17:32.515Z,99.90
2018-11-06T00:20:14.752Z,99.90
2018-11-06T00:22:56.459Z,99.90
2018-11-06T00:25:38.162Z,99.90
2018-11-06T00:28:20.488Z,99.90
2018-11-06T00:31:02.432Z,99.90
2018-11-06T00:33:43.990Z,99.90
2018-11-06T00:36:25.644Z,99.90
2018-11-06T00:39:08.544Z,99.90
2018-11-06T00:41:50.068Z,99.90
2018-11-06T00:44:31.774Z,99.90
2018-11-06T00:47:13.431Z,99.90
2018-11-06T00:49:55.597Z,99.90
2018-11-06T00:52:37.219Z,99.90
2018-11-06T00:55:18.401Z,99.90
2018-11-06T00:57:59.887Z,99.90
2018-11-06T01:00:41.527Z,99.90
2018-11-06T01:03:27.005Z,99.90
2018-11-06T01:06:08.851Z,99.90
2018-11-06T01:08:50.748Z,99.90
2018-11-06T01:11:33.053Z,99.90
2018-11-06T01:14:14.849Z,99.90
2018-11-06T01:16:56.156Z,99.90
2018-11-06T01:19:37.955Z,99.90
2018-11-06T01:22:18.998Z,99.90
2018-11-06T01:25:02.026Z,99.90
2018-11-06T01:27:43.851Z,99.90
2018-11-06T01:30:24.787Z,99.90
2018-11-06T01:33:06.660Z,99.90
2018-11-06T01:35:48.687Z,99.90
2018-11-06T01:38:31.089Z,99.90
2018-11-06T01:41:13.118Z,99.90
2018-11-06T01:43:54.844Z,99.90
2018-11-06T01:46:36.298Z,99.90
2018-11-06T01:49:18.473Z,99.90
2018-11-06T01:51:59.443Z,99.90
2018-11-06T01:54:41.063Z,99.90
2018-11-06T01:57:22.621Z,99.90
2018-11-06T02:00:04.523Z,99.90
2018-11-06T02:02:46.515Z,99.90
2018-11-06T02:05:27.740Z,99.90
2018-11-06T02:08:09.666Z,99.90
2018-11-06T02:10:50.871Z,99.90
2018-11-06T02:13:32.414Z,99.90
2018-11-06T02:16:13.893Z,99.90
2018-11-06T02:18:56.165Z,99.90
2018-11-06T02:21:37.154Z,99.90
2018-11-06T02:24:18.348Z,99.90
2018-11-06T02:26:59.483Z,99.90
2018-11-06T02:29:41.076Z,99.90
2018-11-06T02:32:23.533Z,99.90
2018-11-06T02:35:05.587Z,99.90
2018-11-06T02:37:46.966Z,99.90
2018-11-06T02:40:27.863Z,99.90
2018-11-06T02:43:09.632Z,99.90
2018-11-06T02:45:51.320Z,99.90
2018-11-06T02:48:33.322Z,99.90
2018-11-06T02:51:14.223Z,99.90
2018-11-06T02:53:56.023Z,99.80
2018-11-06T02:56:37.475Z,99.70
2018-11-06T02:59:20.983Z,99.90
2018-11-06T03:02:02.534Z,99.70
2018-11-06T03:04:44.454Z,99.10
2018-11-06T03:07:26.013Z,98.80
2018-11-06T03:10:07.813Z,98.60
2018-11-06T03:12:49.360Z,98.40
2018-11-06T03:15:30.668Z,98.20
2018-11-06T03:18:13.111Z,97.90
2018-11-06T03:20:54.239Z,97.90
2018-11-06T03:23:35.923Z,97.80
2018-11-06T03:26:17.615Z,97.90
2018-11-06T03:28:59.233Z,97.90
2018-11-06T03:31:41.023Z,97.80
2018-11-06T03:34:22.784Z,97.30
2018-11-06T03:37:04.473Z,97.40
2018-11-06T03:39:46.267Z,97.70
2018-11-06T03:42:27.268Z,97.30
2018-11-06T03:45:09.428Z,97.00
2018-11-06T03:47:51.342Z,96.10
2018-11-06T03:50:32.964Z,96.40
2018-11-06T03:53:13.927Z,96.00
2018-11-06T03:55:55.941Z,95.80
2018-11-06T03:58:38.040Z,96.10
2018-11-06T04:01:19.182Z,96.00
2018-11-06T04:04:00.772Z,96.00
2018-11-06T04:06:42.358Z,95.80
2018-11-06T04:09:24.051Z,95.80
2018-11-06T04:12:06.107Z,95.70
2018-11-06T04:14:47.349Z,95.20
2018-11-06T04:17:28.816Z,95.20
2018-11-06T04:20:11.671Z,95.10
2018-11-06T04:22:53.138Z,95.10
2018-11-06T04:25:34.957Z,95.30
2018-11-06T04:28:16.746Z,95.40
2018-11-06T04:30:58.411Z,95.20
2018-11-06T04:33:39.486Z,95.30
2018-11-06T04:36:21.342Z,95.10
2018-11-06T04:39:02.756Z,95.50
2018-11-06T04:41:44.250Z,94.80
2018-11-06T04:44:25.862Z,95.10
2018-11-06T04:47:08.248Z,94.70
2018-11-06T04:49:49.424Z,94.50
2018-11-06T04:52:32.242Z,94.10
2018-11-06T04:55:14.164Z,93.80
2018-11-06T04:57:55.829Z,94.20
2018-11-06T05:00:38.408Z,94.10
2018-11-06T05:03:19.751Z,93.90
2018-11-06T05:06:01.737Z,94.10
2018-11-06T05:08:43.702Z,94.20
2018-11-06T05:11:24.687Z,94.30
2018-11-06T05:14:07.072Z,93.80
2018-11-06T05:16:48.007Z,93.90
2018-11-06T05:19:29.554Z,93.80
2018-11-06T05:22:11.149Z,93.70
2018-11-06T05:24:53.757Z,93.40
2018-11-06T05:27:36.157Z,93.20
2018-11-06T05:30:17.520Z,92.90
2018-11-06T05:32:59.964Z,93.30
2018-11-06T05:35:41.579Z,93.50
2018-11-06T05:38:23.160Z,93.60
2018-11-06T05:41:06.475Z,93.30
2018-11-06T05:43:47.382Z,92.80
2018-11-06T05:46:28.946Z,93.20
2018-11-06T05:49:10.541Z,93.30
2018-11-06T05:51:52.612Z,93.40
2018-11-06T05:54:33.833Z,93.80
2018-11-06T05:57:15.512Z,93.40
2018-11-06T05:59:57.811Z,93.30
2018-11-06T06:02:38.988Z,93.30
2018-11-06T06:05:20.517Z,93.30
2018-11-06T06:08:02.317Z,92.90
2018-11-06T06:10:44.144Z,92.40
2018-11-06T06:13:25.425Z,92.80
2018-11-06T06:16:07.135Z,92.30
2018-11-06T06:18:48.707Z,92.50
2018-11-06T06:21:31.438Z,92.30
2018-11-06T06:24:14.137Z,92.60
2018-11-06T06:26:55.837Z,92.90
2018-11-06T06:29:38.452Z,92.70
2018-11-06T06:32:19.930Z,92.70
2018-11-06T06:35:01.528Z,93.00
2018-11-06T06:37:43.594Z,93.10
2018-11-06T06:40:24.589Z,93.20
2018-11-06T06:43:07.282Z,92.80
2018-11-06T06:45:49.637Z,92.20
2018-11-06T06:48:31.125Z,92.10
2018-11-06T06:51:12.915Z,91.80
2018-11-06T06:53:54.526Z,92.50
2018-11-06T06:56:36.169Z,92.80
2018-11-06T06:59:17.984Z,92.80
2018-11-06T07:01:59.590Z,92.90
2018-11-06T07:04:41.270Z,92.90
2018-11-06T07:07:22.939Z,92.10
2018-11-06T07:10:04.638Z,90.20
2018-11-06T07:12:45.886Z,89.20
2018-11-06T07:15:27.420Z,83.90
2018-11-06T07:18:08.469Z,80.80
2018-11-06T07:20:49.988Z,78.70
2018-11-06T07:23:31.546Z,76.90
2018-11-06T07:26:12.930Z,76.10
2018-11-06T07:28:54.529Z,75.90
2018-11-06T07:31:36.311Z,76.40
2018-11-06T07:34:17.803Z,77.20
2018-11-06T07:36:59.194Z,79.60
2018-11-06T07:39:41.003Z,80.00
2018-11-06T07:42:22.663Z,81.60
2018-11-06T07:45:04.482Z,80.60
2018-11-06T07:47:45.778Z,82.30
2018-11-06T07:50:27.215Z,83.60
2018-11-06T07:53:09.024Z,83.80
2018-11-06T07:55:50.485Z,85.90
2018-11-06T07:58:32.714Z,86.30
2018-11-06T08:01:13.711Z,87.90
2018-11-06T08:03:55.393Z,87.70
2018-11-06T08:06:36.764Z,88.50
2018-11-06T08:09:18.448Z,88.40
2018-11-06T08:12:00.622Z,89.10
2018-11-06T08:14:41.901Z,89.40
2018-11-06T08:17:24.345Z,88.60
2018-11-06T08:20:05.545Z,88.70
2018-11-06T08:22:47.722Z,90.10
2018-11-06T08:25:29.490Z,89.60
2018-11-06T08:28:11.107Z,88.80
2018-11-06T08:30:52.959Z,87.30
2018-11-06T08:33:33.977Z,87.00
2018-11-06T08:36:16.094Z,85.80
2018-11-06T08:38:57.664Z,85.90
2018-11-06T08:41:39.259Z,84.70
2018-11-06T08:44:20.946Z,84.90
2018-11-06T08:47:03.074Z,84.60
2018-11-06T08:49:44.451Z,83.70
2018-11-06T08:52:26.554Z,77.50
2018-11-06T08:55:07.351Z,74.50
2018-11-06T08:57:48.650Z,69.70
2018-11-06T09:00:30.406Z,60.10
2018-11-06T09:03:13.022Z,58.50
2018-11-06T09:05:53.910Z,56.10
2018-11-06T09:08:35.352Z,53.50
2018-11-06T09:11:17.072Z,50.80
2018-11-06T09:13:58.525Z,48.90
2018-11-06T09:16:40.057Z,45.20
2018-11-06T09:19:21.449Z,43.80
2018-11-06T09:22:03.411Z,42.80
2018-11-06T09:24:45.545Z,40.10
2018-11-06T09:27:27.084Z,40.10
2018-11-06T09:30:08.688Z,39.00
2018-11-06T09:32:50.285Z,37.30
2018-11-06T09:35:30.920Z,39.00
2018-11-06T09:38:11.576Z,37.40
2018-11-06T09:40:52.701Z,35.80
2018-11-06T09:43:34.565Z,36.10
2018-11-06T09:46:16.277Z,36.50
2018-11-06T09:48:58.277Z,35.10
2018-11-06T09:51:40.831Z,34.20
2018-11-06T09:54:22.697Z,36.30
2018-11-06T09:57:05.077Z,36.80
2018-11-06T09:59:46.111Z,35.90
2018-11-06T10:02:28.073Z,33.60
2018-11-06T10:05:10.581Z,34.70
2018-11-06T10:07:51.340Z,34.00
2018-11-06T10:10:32.788Z,34.40
2018-11-06T10:13:14.330Z,35.90
2018-11-06T10:15:55.143Z,38.00
2018-11-06T10:18:37.290Z,40.30
2018-11-06T10:21:18.972Z,42.30
2018-11-06T10:24:00.211Z,42.30
2018-11-06T10:26:41.630Z,44.60
2018-11-06T10:29:22.294Z,44.90
2018-11-06T10:32:03.192Z,47.90
2018-11-06T10:34:46.077Z,49.80
2018-11-06T10:37:28.100Z,51.90
2018-11-06T10:40:09.974Z,54.70
2018-11-06T10:42:51.462Z,57.00
2018-11-06T10:45:33.583Z,57.90
2018-11-06T10:48:14.811Z,59.30
2018-11-06T10:50:56.641Z,60.50
2018-11-06T10:53:38.262Z,60.80
2018-11-06T10:56:19.156Z,62.00
2018-11-06T10:59:01.102Z,63.40
2018-11-06T11:01:47.807Z,64.20
2018-11-06T11:04:30.248Z,64.00
2018-11-06T11:07:11.114Z,63.70
2018-11-06T11:09:52.839Z,63.20
2018-11-06T11:12:34.175Z,59.80
2018-11-06T11:15:15.750Z,59.70
2018-11-06T11:17:57.366Z,59.30
2018-11-06T11:20:39.596Z,56.40
2018-11-06T11:23:21.262Z,56.70
2018-11-06T11:26:02.457Z,57.20
2018-11-06T11:28:43.541Z,58.20
2018-11-06T11:31:25.282Z,57.80
2018-11-06T11:34:06.485Z,57.00
2018-11-06T11:36:48.067Z,57.60
2018-11-06T11:39:29.945Z,57.00
2018-11-06T11:42:11.636Z,56.40
2018-11-06T11:44:53.234Z,56.20
2018-11-06T11:47:35.679Z,54.80
2018-11-06T11:50:16.953Z,54.70
2018-11-06T11:52:58.299Z,54.50
2018-11-06T11:55:40.611Z,55.40
2018-11-06T11:58:21.681Z,54.60
2018-11-06T12:01:03.475Z,53.30
2018-11-06T12:03:44.570Z,54.30
2018-11-06T12:06:25.836Z,55.70
2018-11-06T12:09:07.649Z,57.10
2018-11-06T12:11:49.163Z,58.40
2018-11-06T12:14:30.527Z,57.20
2018-11-06T12:17:11.712Z,58.50
2018-11-06T12:19:53.060Z,58.60
2018-11-06T12:22:34.733Z,59.20
2018-11-06T12:25:16.731Z,58.80
2018-11-06T12:27:57.940Z,57.40
2018-11-06T12:30:39.416Z,57.90
2018-11-06T12:33:21.131Z,59.40
2018-11-06T12:36:02.797Z,59.50
2018-11-06T12:38:43.990Z,60.60
2018-11-06T12:41:25.773Z,60.30
2018-11-06T12:44:07.492Z,61.20
2018-11-06T12:46:48.956Z,59.90
2018-11-06T12:49:30.707Z,59.80
2018-11-06T12:52:12.637Z,59.80
2018-11-06T12:54:54.274Z,58.00
2018-11-06T12:57:35.711Z,58.70
2018-11-06T13:00:18.549Z,57.80
2018-11-06T13:03:00.665Z,57.50
2018-11-06T13:05:41.710Z,57.60
2018-11-06T13:08:23.634Z,55.20
2018-11-06T13:11:05.320Z,56.70
2018-11-06T13:13:46.197Z,54.40
2018-11-06T13:16:27.858Z,54.60
2018-11-06T13:19:08.961Z,53.60
2018-11-06T13:21:50.064Z,54.90
2018-11-06T13:24:31.833Z,55.80
2018-11-06T13:27:13.623Z,55.90
2018-11-06T13:29:55.015Z,57.40
2018-11-06T13:32:36.775Z,57.30
2018-11-06T13:35:19.114Z,55.90
2018-11-06T13:38:00.080Z,55.60
2018-11-06T13:40:41.849Z,53.80
2018-11-06T13:43:23.931Z,53.00
2018-11-06T13:46:04.922Z,52.30
2018-11-06T13:48:46.435Z,51.30
2018-11-06T13:51:27.998Z,50.80
2018-11-06T13:54:09.791Z,49.60
2018-11-06T13:56:51.177Z,50.00
2018-11-06T13:59:32.768Z,49.60
2018-11-06T14:02:14.250Z,51.30
2018-11-06T14:04:55.654Z,52.90
2018-11-06T14:07:38.655Z,52.80
2018-11-06T14:10:20.692Z,52.60
2018-11-06T14:13:01.762Z,52.10
2018-11-06T14:15:43.244Z,50.40
2018-11-06T14:18:25.829Z,47.10
2018-11-06T14:21:07.315Z,44.40
2018-11-06T14:23:48.889Z,41.50
2018-11-06T14:26:30.396Z,41.50
2018-11-06T14:29:12.091Z,41.00
2018-11-06T14:31:53.478Z,39.30
2018-11-06T14:34:34.889Z,41.90
2018-11-06T14:37:15.733Z,43.90
2018-11-06T14:39:57.271Z,44.60
2018-11-06T14:42:39.664Z,45.50
2018-11-06T14:45:20.732Z,47.60
2018-11-06T14:48:02.387Z,47.80
2018-11-06T14:50:44.382Z,49.60
2018-11-06T14:53:25.390Z,51.60
2018-11-06T14:56:07.162Z,52.60
2018-11-06T14:58:48.845Z,54.10
2018-11-06T15:01:30.429Z,54.10
2018-11-06T15:04:12.020Z,55.20
2018-11-06T15:06:53.418Z,56.30
2018-11-06T15:09:35.113Z,56.70
2018-11-06T15:12:16.814Z,58.00
2018-11-06T15:14:58.585Z,59.10
2018-11-06T15:17:41.396Z,60.50
2018-11-06T15:20:23.502Z,60.00
2018-11-06T15:23:04.736Z,62.20
2018-11-06T15:25:46.471Z,62.80
2018-11-06T15:28:27.780Z,64.60
2018-11-06T15:31:09.478Z,65.70
2018-11-06T15:33:51.267Z,67.50
2018-11-06T15:36:32.670Z,68.00
2018-11-06T15:39:13.962Z,68.80
2018-11-06T15:41:55.995Z,68.80
2018-11-06T15:44:37.796Z,70.00
2018-11-06T15:47:19.726Z,70.80
2018-11-06T15:50:02.723Z,72.20
2018-11-06T15:52:44.634Z,73.00
2018-11-06T15:55:25.690Z,73.80
2018-11-06T15:58:07.197Z,74.20
2018-11-06T16:00:49.525Z,73.80
2018-11-06T16:03:32.181Z,73.80
2018-11-06T16:06:13.192Z,73.00
2018-11-06T16:08:54.777Z,70.60
2018-11-06T16:11:36.972Z,70.70
2018-11-06T16:14:18.873Z,70.50
2018-11-06T16:17:00.750Z,69.50
2018-11-06T16:19:42.544Z,71.00
2018-11-06T16:22:23.641Z,70.90
2018-11-06T16:25:05.935Z,71.30
2018-11-06T16:27:47.326Z,69.90
2018-11-06T16:30:28.697Z,71.20
2018-11-06T16:33:10.293Z,73.80
2018-11-06T16:35:52.485Z,74.50
2018-11-06T16:38:33.913Z,74.70
2018-11-06T16:41:15.273Z,75.70
2018-11-06T16:43:57.168Z,77.10
2018-11-06T16:46:38.610Z,77.10
2018-11-06T16:49:20.356Z,76.60
2018-11-06T16:52:02.535Z,76.70
2018-11-06T16:54:43.895Z,75.30
2018-11-06T16:57:26.342Z,75.90
2018-11-06T17:00:08.110Z,76.10
2018-11-06T17:02:49.601Z,77.40
2018-11-06T17:05:31.218Z,76.80
2018-11-06T17:08:13.078Z,76.40
2018-11-06T17:10:54.264Z,74.70
2018-11-06T17:13:36.462Z,76.20
2018-11-06T17:16:18.161Z,76.60
2018-11-06T17:18:59.265Z,76.20
2018-11-06T17:21:41.982Z,76.20
2018-11-06T17:24:24.082Z,77.30
2018-11-06T17:27:06.362Z,77.10
2018-11-06T17:29:47.665Z,77.40
2018-11-06T17:32:29.834Z,77.90
2018-11-06T17:35:12.603Z,78.20
2018-11-06T17:37:54.513Z,78.20
2018-11-06T17:40:35.633Z,78.50
2018-11-06T17:43:17.324Z,78.70
2018-11-06T17:45:58.811Z,79.30
2018-11-06T17:48:40.631Z,80.00
2018-11-06T17:51:22.665Z,79.10
2018-11-06T17:54:03.703Z,78.40
2018-11-06T17:56:45.572Z,78.10
2018-11-06T17:59:26.650Z,77.80
2018-11-06T18:02:08.526Z,76.90
2018-11-06T18:04:49.416Z,76.90
2018-11-06T18:07:30.741Z,76.80
2018-11-06T18:10:13.854Z,76.30
2018-11-06T18:12:55.923Z,76.50
2018-11-06T18:15:37.483Z,75.60
2018-11-06T18:18:19.205Z,77.50
2018-11-06T18:21:00.515Z,77.10
2018-11-06T18:23:42.957Z,76.30
2018-11-06T18:26:24.340Z,77.20
2018-11-06T18:29:06.673Z,77.30
2018-11-06T18:31:47.826Z,77.20
2018-11-06T18:34:29.072Z,77.60
2018-11-06T18:37:12.089Z,77.80
2018-11-06T18:39:53.890Z,78.10
2018-11-06T18:42:35.575Z,78.10
2018-11-06T18:45:17.381Z,78.10
2018-11-06T18:47:58.442Z,78.20
2018-11-06T18:50:40.876Z,78.60
2018-11-06T18:53:21.948Z,79.10
2018-11-06T18:56:03.448Z,78.30
2018-11-06T18:58:45.887Z,77.60
2018-11-06T19:01:27.695Z,77.40
2018-11-06T19:04:09.141Z,77.00
2018-11-06T19:06:53.112Z,76.80
2018-11-06T19:09:35.361Z,77.30
2018-11-06T19:12:16.511Z,77.40
2018-11-06T19:14:58.360Z,78.00
2018-11-06T19:17:39.993Z,78.40
2018-11-06T19:20:21.787Z,78.60
2018-11-06T19:23:03.526Z,78.30
2018-11-06T19:25:45.884Z,78.50
2018-11-06T19:28:26.999Z,78.60
2018-11-06T19:31:08.607Z,78.60
2018-11-06T19:33:50.311Z,77.50
2018-11-06T19:36:31.683Z,77.70
2018-11-06T19:39:14.442Z,78.00
2018-11-06T19:41:55.927Z,78.00
2018-11-06T19:44:37.618Z,78.70
2018-11-06T19:47:19.165Z,78.50
2018-11-06T19:50:00.839Z,78.40
2018-11-06T19:52:43.088Z,78.10
2018-11-06T19:55:24.689Z,78.70
2018-11-06T19:58:06.485Z,79.00
2018-11-06T20:00:48.223Z,79.50
2018-11-06T20:03:30.226Z,80.70
2018-11-06T20:06:11.638Z,80.70
2018-11-06T20:08:54.403Z,80.00
2018-11-06T20:11:35.561Z,80.10
2018-11-06T20:14:16.937Z,80.50
2018-11-06T20:16:59.576Z,80.70
2018-11-06T20:19:41.478Z,80.80
2018-11-06T20:22:23.961Z,80.70
2018-11-06T20:25:05.474Z,80.90
2018-11-06T20:27:47.163Z,80.90
2018-11-06T20:30:29.233Z,81.20
2018-11-06T20:33:11.093Z,81.00
2018-11-06T20:35:53.270Z,80.80
2018-11-06T20:38:35.041Z,80.70
2018-11-06T20:41:17.057Z,80.60
2018-11-06T20:43:58.001Z,80.40
2018-11-06T20:46:39.899Z,80.30
2018-11-06T20:49:21.970Z,80.50
2018-11-06T20:52:04.504Z,80.40
2018-11-06T20:54:46.179Z,80.60
2018-11-06T20:57:28.283Z,80.60
2018-11-06T21:00:13.304Z,80.20
2018-11-06T21:02:55.863Z,80.20
2018-11-06T21:05:37.805Z,80.10
2018-11-06T21:08:18.877Z,79.90
2018-11-06T21:11:00.999Z,79.80
2018-11-06T21:13:42.744Z,79.60
2018-11-06T21:16:23.820Z,79.50
2018-11-06T21:19:05.955Z,79.60
2018-11-06T21:21:47.821Z,79.60
2018-11-06T21:24:29.672Z,79.60
2018-11-06T21:27:11.836Z,79.60
2018-11-06T21:29:53.328Z,79.70
2018-11-06T21:32:35.021Z,79.70
2018-11-06T21:35:17.389Z,79.80
2018-11-06T21:37:59.640Z,79.80
2018-11-06T21:40:42.019Z,80.00
2018-11-06T21:43:24.109Z,80.00
2018-11-06T21:46:06.548Z,80.00
2018-11-06T21:48:47.595Z,79.90
2018-11-06T21:51:29.224Z,79.90
2018-11-06T21:54:11.078Z,79.90
2018-11-06T21:56:53.811Z,80.00
2018-11-06T21:59:35.911Z,80.80
2018-11-06T22:02:17.105Z,80.10
2018-11-06T22:04:58.764Z,80.40
2018-11-06T22:07:40.929Z,80.20
2018-11-06T22:10:22.382Z,80.30
2018-11-06T22:13:04.409Z,80.20
2018-11-06T22:15:47.169Z,80.60
2018-11-06T22:18:28.756Z,80.60
2018-11-06T22:21:11.644Z,80.70
2018-11-06T22:23:53.375Z,80.80
2018-11-06T22:26:34.479Z,81.00
2018-11-06T22:29:15.848Z,81.00
2018-11-06T22:31:58.135Z,81.70
2018-11-06T22:34:39.864Z,82.40
2018-11-06T22:37:21.705Z,81.70
2018-11-06T22:40:03.693Z,81.70
2018-11-06T22:42:46.285Z,81.20
2018-11-06T22:45:28.533Z,81.00
2018-11-06T22:48:10.781Z,81.20
2018-11-06T22:50:51.815Z,80.90
2018-11-06T22:53:34.148Z,80.80
2018-11-06T22:56:15.435Z,80.80
2018-11-06T22:58:57.228Z,81.70
2018-11-06T23:01:38.990Z,81.00
2018-11-06T23:04:20.575Z,82.30
2018-11-06T23:07:12.969Z,81.80
2018-11-06T23:09:55.319Z,82.20
2018-11-06T23:12:36.709Z,82.30
2018-11-06T23:15:18.245Z,82.50
2018-11-06T23:18:00.093Z,82.80
2018-11-06T23:20:41.762Z,82.70
2018-11-06T23:23:23.197Z,82.90
2018-11-06T23:26:04.824Z,83.10
2018-11-06T23:28:46.491Z,83.30
2018-11-06T23:31:28.276Z,83.20
2018-11-06T23:34:09.673Z,83.50
2018-11-06T23:36:51.108Z,84.20
2018-11-06T23:39:32.909Z,83.70
2018-11-06T23:42:14.538Z,83.70
2018-11-06T23:44:56.355Z,83.70
2018-11-06T23:47:38.282Z,84.00
2018-11-06T23:50:19.565Z,84.10
2018-11-06T23:53:00.993Z,84.20
2018-11-06T23:55:42.129Z,84.20
2018-11-06T23:58:23.725Z,84.60
